Time;durP1;ratioP1;P1;durP2;ratioP2;P2;SDS_P1;SDS_P2;PMS_P1;PMS_P2;Temp;Humidity;BMP_temperature;BMP_pressure;BME280_temperature;BME280_humidity;BME280_pressure;Samples;Min_cycle;Max_cycle;Signal;HPM_P1;HPM_P2
2022/08/21 00:02:03;;;;;;;17.08;2.85;;;17.60;99.90;;;;;;5051168;28;20547;-50
2022/08/21 00:04:30;;;;;;;20.25;3.08;;;17.50;99.90;;;;;;5051252;28;20216;-50
2022/08/21 00:06:56;;;;;;;12.60;2.92;;;17.40;99.90;;;;;;5051177;28;20176;-50
2022/08/21 00:09:22;;;;;;;19.38;2.70;;;17.40;99.90;;;;;;5050962;28;20662;-50
2022/08/21 00:11:47;;;;;;;18.08;2.38;;;17.50;99.90;;;;;;5050868;28;20169;-50
2022/08/21 00:14:14;;;;;;;16.73;2.13;;;17.50;99.90;;;;;;5051012;28;20177;-50
2022/08/21 00:16:40;;;;;;;17.17;2.60;;;17.40;99.90;;;;;;5051002;28;20693;-50
2022/08/21 00:19:07;;;;;;;11.77;2.60;;;17.40;99.90;;;;;;5050813;28;20177;-50
2022/08/21 00:21:34;;;;;;;18.83;2.75;;;17.40;99.90;;;;;;5050895;28;20636;-50
2022/08/21 00:24:00;;;;;;;23.10;3.10;;;17.30;99.90;;;;;;5050830;28;20205;-50
2022/08/21 00:26:26;;;;;;;14.50;2.80;;;17.30;99.90;;;;;;5050851;28;20264;-50
2022/08/21 00:28:52;;;;;;;17.05;3.22;;;17.20;99.90;;;;;;5050847;28;20664;-50
2022/08/21 00:31:18;;;;;;;19.58;2.80;;;17.20;99.90;;;;;;5050801;28;20165;-51
2022/08/21 00:33:45;;;;;;;19.17;3.45;;;17.20;99.90;;;;;;5050808;28;20629;-50
2022/08/21 00:36:11;;;;;;;17.95;2.40;;;17.20;99.90;;;;;;5050691;28;20185;-50
2022/08/21 00:38:36;;;;;;;20.05;3.25;;;17.10;99.90;;;;;;5050785;28;20252;-51
2022/08/21 00:41:05;;;;;;;18.50;3.35;;;17.20;99.90;;;;;;5050745;28;20213;-51
2022/08/21 00:43:34;;;;;;;17.83;2.75;;;17.20;99.90;;;;;;5050419;28;20296;-50
2022/08/21 00:46:01;;;;;;;15.77;2.92;;;17.10;99.90;;;;;;5054830;28;20181;-51
2022/08/21 00:48:27;;;;;;;19.85;2.85;;;17.00;99.90;;;;;;5054726;28;20173;-50
2022/08/21 00:51:08;;;;;;;15.65;2.83;;;17.10;99.90;;;;;;5054734;28;20173;-50
2022/08/21 00:53:37;;;;;;;15.18;2.92;;;17.10;99.90;;;;;;5054635;28;20597;-50
2022/08/21 00:56:06;;;;;;;12.88;2.42;;;17.10;99.90;;;;;;5054670;28;20165;-50
2022/08/21 00:58:32;;;;;;;16.38;2.60;;;17.20;99.90;;;;;;5054613;28;20198;-49
2022/08/21 01:01:01;;;;;;;16.58;2.40;;;17.20;99.90;;;;;;5054482;28;20170;-50
2022/08/21 01:03:27;;;;;;;26.27;2.75;;;17.10;99.90;;;;;;5054380;28;20169;-50
2022/08/21 01:05:52;;;;;;;13.45;2.70;;;17.20;99.90;;;;;;5054421;28;20176;-50
2022/08/21 01:08:19;;;;;;;15.25;2.35;;;17.20;99.90;;;;;;5054357;28;20196;-50
2022/08/21 01:10:46;;;;;;;17.27;3.00;;;17.20;99.90;;;;;;5054484;28;20235;-51
2022/08/21 01:13:16;;;;;;;19.77;2.72;;;17.20;99.90;;;;;;5054266;28;20632;-50
2022/08/21 01:15:45;;;;;;;17.67;2.60;;;17.20;99.90;;;;;;5054208;28;20709;-51
2022/08/21 01:18:12;;;;;;;19.80;3.00;;;17.10;99.90;;;;;;5054297;28;20173;-50
2022/08/21 01:20:49;;;;;;;19.92;3.10;;;17.10;99.90;;;;;;5054219;28;20194;-50
2022/08/21 01:23:15;;;;;;;17.60;2.83;;;17.00;99.90;;;;;;5054042;28;20173;-49
2022/08/21 01:25:41;;;;;;;22.15;2.90;;;17.00;99.90;;;;;;5053990;28;20206;-50
2022/08/21 01:28:13;;;;;;;19.17;2.75;;;17.00;99.90;;;;;;5053915;28;20200;-50
2022/08/21 01:30:41;;;;;;;14.30;2.80;;;17.00;99.90;;;;;;5053900;28;20269;-50
2022/08/21 01:33:07;;;;;;;21.90;3.28;;;17.00;99.90;;;;;;5053806;28;20598;-50
2022/08/21 01:35:34;;;;;;;18.95;2.63;;;16.90;99.90;;;;;;5053921;28;20253;-50
2022/08/21 01:38:00;;;;;;;15.43;2.28;;;16.90;99.90;;;;;;5054035;28;20165;-50
2022/08/21 01:40:26;;;;;;;16.02;2.80;;;17.00;99.90;;;;;;5053810;28;20648;-50
2022/08/21 01:42:51;;;;;;;18.23;2.67;;;17.00;99.90;;;;;;5053618;28;20169;-49
2022/08/21 01:45:17;;;;;;;16.40;3.05;;;17.00;99.90;;;;;;5053586;28;20266;-50
2022/08/21 01:47:44;;;;;;;20.08;2.58;;;17.00;99.90;;;;;;5053597;28;20666;-50
2022/08/21 01:50:13;;;;;;;18.92;3.05;;;17.10;99.90;;;;;;5053590;28;20170;-50
2022/08/21 01:52:39;;;;;;;22.38;2.83;;;17.00;99.90;;;;;;5053461;28;20165;-50
2022/08/21 01:55:08;;;;;;;19.67;3.38;;;17.00;99.90;;;;;;5053044;28;20311;-50
2022/08/21 01:57:34;;;;;;;20.23;2.97;;;16.90;99.90;;;;;;5053463;28;20177;-50
2022/08/21 01:59:59;;;;;;;18.50;2.92;;;16.90;99.90;;;;;;5053441;28;20264;-50
2022/08/21 02:02:25;;;;;;;23.83;3.00;;;16.90;99.90;;;;;;5053353;28;20176;-50
2022/08/21 02:04:51;;;;;;;23.05;2.80;;;16.90;99.90;;;;;;5053270;28;20216;-50
2022/08/21 02:07:16;;;;;;;18.63;2.58;;;16.80;99.90;;;;;;5053408;28;20173;-50
2022/08/21 02:09:42;;;;;;;18.33;2.80;;;16.80;99.90;;;;;;5053185;28;20169;-50
2022/08/21 02:12:09;;;;;;;32.58;3.33;;;16.80;99.90;;;;;;5053138;28;20659;-50
2022/08/21 02:14:35;;;;;;;15.48;2.40;;;16.80;99.90;;;;;;5053196;28;20168;-52
2022/08/21 02:17:00;;;;;;;14.18;2.63;;;16.90;99.90;;;;;;5053036;28;20165;-50
2022/08/21 02:19:26;;;;;;;13.02;2.28;;;16.90;99.90;;;;;;5053125;28;20177;-51
2022/08/21 02:21:52;;;;;;;20.45;3.20;;;16.90;99.90;;;;;;5053043;28;20168;-50
2022/08/21 02:24:17;;;;;;;21.52;3.35;;;16.90;99.90;;;;;;5052843;28;20559;-50
2022/08/21 02:26:43;;;;;;;23.55;2.75;;;17.00;99.90;;;;;;5053014;28;20589;-50
2022/08/21 02:29:09;;;;;;;20.08;3.20;;;17.00;99.90;;;;;;5052859;28;20177;-51
2022/08/21 02:31:35;;;;;;;22.17;2.35;;;16.90;99.90;;;;;;5052806;28;20205;-51
2022/08/21 02:34:01;;;;;;;27.73;3.33;;;16.90;99.90;;;;;;5052778;28;20644;-51
2022/08/21 02:36:27;;;;;;;20.02;3.15;;;16.90;99.90;;;;;;5052856;28;20585;-50
2022/08/21 02:38:53;;;;;;;16.42;2.72;;;17.00;99.90;;;;;;5052691;28;20634;-51
2022/08/21 02:41:21;;;;;;;18.52;2.78;;;17.00;99.90;;;;;;5052775;28;20288;-50
2022/08/21 02:43:46;;;;;;;19.85;2.65;;;17.00;99.90;;;;;;5052418;28;20749;-50
2022/08/21 02:46:16;;;;;;;16.35;3.10;;;17.10;99.90;;;;;;5052564;28;20165;-50
2022/08/21 02:48:42;;;;;;;22.92;3.40;;;17.00;99.90;;;;;;5052723;28;20180;-50
2022/08/21 02:51:12;;;;;;;12.70;2.88;;;17.10;99.90;;;;;;5052517;28;20173;-51
2022/08/21 02:53:38;;;;;;;25.48;3.10;;;17.20;99.90;;;;;;5052766;28;20670;-51
2022/08/21 02:56:07;;;;;;;23.38;2.97;;;17.20;99.90;;;;;;5052333;28;20188;-51
2022/08/21 02:58:53;;;;;;;24.10;2.78;;;17.20;99.90;;;;;;5052244;28;20169;-51
2022/08/21 03:01:19;;;;;;;24.75;2.88;;;17.10;99.90;;;;;;5052118;28;20177;-51
2022/08/21 03:03:46;;;;;;;15.93;2.72;;;17.10;99.90;;;;;;5052187;28;20216;-51
2022/08/21 03:06:16;;;;;;;16.13;2.60;;;17.10;99.90;;;;;;5051845;28;20184;-51
2022/08/21 03:08:44;;;;;;;17.20;3.08;;;17.10;99.90;;;;;;5051509;28;20177;-51
2022/08/21 03:11:10;;;;;;;18.92;2.72;;;17.10;99.90;;;;;;5052055;28;20185;-50
2022/08/21 03:13:36;;;;;;;22.42;2.85;;;17.10;99.90;;;;;;5051944;28;20175;-51
2022/08/21 03:16:02;;;;;;;23.45;3.53;;;17.00;99.90;;;;;;5052054;28;20264;-51
2022/08/21 03:18:28;;;;;;;23.52;2.95;;;16.90;99.90;;;;;;5052011;28;20212;-50
2022/08/21 03:20:53;;;;;;;25.75;3.10;;;16.90;99.90;;;;;;5051815;28;20169;-50
2022/08/21 03:23:19;;;;;;;22.73;2.80;;;17.00;99.90;;;;;;5051923;28;20173;-50
2022/08/21 03:25:47;;;;;;;25.38;2.70;;;17.00;99.90;;;;;;5051651;28;20223;-51
2022/08/21 03:28:17;;;;;;;18.73;2.65;;;17.00;99.90;;;;;;5051701;28;20173;-50
2022/08/21 03:30:46;;;;;;;21.67;3.05;;;17.00;99.90;;;;;;5051701;28;20173;-50
2022/08/21 03:33:12;;;;;;;16.02;2.55;;;17.00;99.90;;;;;;5051663;28;20165;-50
2022/08/21 03:35:38;;;;;;;24.48;3.08;;;17.00;99.90;;;;;;5051671;28;20169;-50
2022/08/21 03:38:04;;;;;;;21.45;2.83;;;17.00;99.90;;;;;;5050124;28;20646;-50
2022/08/21 03:40:29;;;;;;;18.10;2.72;;;17.00;99.90;;;;;;5051495;28;20176;-50
2022/08/21 03:42:55;;;;;;;18.40;3.20;;;17.00;99.90;;;;;;5051527;28;20600;-50
2022/08/21 03:45:21;;;;;;;17.83;2.72;;;17.00;99.90;;;;;;5051289;28;20217;-50
2022/08/21 03:47:55;;;;;;;16.73;2.38;;;16.90;99.90;;;;;;5051537;28;20173;-50
2022/08/21 03:50:22;;;;;;;14.27;3.17;;;16.90;99.90;;;;;;5051300;28;20544;-50
2022/08/21 03:52:48;;;;;;;23.40;3.35;;;16.90;99.90;;;;;;5051250;28;20161;-50
2022/08/21 03:55:14;;;;;;;17.30;2.67;;;16.90;99.90;;;;;;5051412;28;20162;-50
2022/08/21 03:57:40;;;;;;;23.15;2.85;;;16.80;99.90;;;;;;5051255;28;20519;-49
2022/08/21 04:00:08;;;;;;;17.85;2.40;;;16.80;99.90;;;;;;5051154;28;20181;-50
2022/08/21 04:02:34;;;;;;;15.38;2.13;;;16.80;99.90;;;;;;5051078;28;20539;-50
2022/08/21 04:04:59;;;;;;;17.55;2.85;;;16.70;99.90;;;;;;5051092;28;20209;-50
2022/08/21 04:07:25;;;;;;;19.98;2.95;;;16.80;99.90;;;;;;5051109;28;20720;-50
2022/08/21 04:09:51;;;;;;;20.48;2.60;;;16.80;99.90;;;;;;5051070;28;20654;-50
2022/08/21 04:12:17;;;;;;;15.23;2.60;;;16.80;99.90;;;;;;5051193;28;20528;-50
2022/08/21 04:14:42;;;;;;;18.75;2.65;;;16.80;99.90;;;;;;5050949;28;20640;-50
2022/08/21 04:17:08;;;;;;;19.45;3.28;;;16.90;99.90;;;;;;5050969;28;20628;-50
2022/08/21 04:19:33;;;;;;;17.85;3.17;;;16.80;99.90;;;;;;5050802;28;20169;-50
2022/08/21 04:21:59;;;;;;;25.58;2.78;;;16.80;99.90;;;;;;5050883;28;20632;-50
2022/08/21 04:24:25;;;;;;;15.50;2.80;;;16.80;99.90;;;;;;5050964;28;20213;-50
2022/08/21 04:26:50;;;;;;;17.02;2.63;;;16.80;99.90;;;;;;5050800;28;20663;-50
2022/08/21 04:29:16;;;;;;;20.00;2.90;;;16.70;99.90;;;;;;5050815;28;20182;-50
2022/08/21 04:31:43;;;;;;;15.45;3.85;;;16.80;99.90;;;;;;5050907;28;20172;-50
2022/08/21 04:34:09;;;;;;;16.77;2.58;;;16.80;99.90;;;;;;5050693;28;20173;-50
2022/08/21 04:36:35;;;;;;;24.50;2.83;;;16.80;99.90;;;;;;5050723;28;20224;-50
2022/08/21 04:39:01;;;;;;;19.25;3.05;;;16.90;99.90;;;;;;5050849;28;20215;-50
2022/08/21 04:41:28;;;;;;;27.13;3.13;;;16.90;99.90;;;;;;5050821;28;20192;-50
2022/08/21 04:43:55;;;;;;;24.05;3.08;;;16.90;99.90;;;;;;5050568;28;20336;-50
2022/08/21 04:46:21;;;;;;;15.57;2.30;;;16.90;99.90;;;;;;5050706;28;20185;-50
2022/08/21 04:48:47;;;;;;;12.35;2.33;;;16.90;99.90;;;;;;5050594;28;20192;-50
2022/08/21 04:51:22;;;;;;;15.63;2.08;;;17.00;99.90;;;;;;5050919;28;20188;-49
2022/08/21 04:54:06;;;;;;;16.20;2.72;;;17.00;99.90;;;;;;5050508;28;20168;-50
2022/08/21 04:56:45;;;;;;;17.08;2.45;;;16.90;99.90;;;;;;5050682;28;20637;-50
2022/08/21 04:59:16;;;;;;;17.60;2.55;;;16.90;99.90;;;;;;5050502;28;20169;-50
2022/08/21 05:01:43;;;;;;;18.27;2.47;;;16.80;99.90;;;;;;5050535;28;20173;-50
2022/08/21 05:04:12;;;;;;;18.10;2.22;;;16.80;99.90;;;;;;5050425;28;20672;-50
2022/08/21 05:06:41;;;;;;;13.65;2.38;;;16.80;99.90;;;;;;5050383;28;20207;-50
2022/08/21 05:09:09;;;;;;;20.23;2.83;;;16.70;99.90;;;;;;5050493;28;20624;-50
2022/08/21 05:11:36;;;;;;;14.55;2.22;;;16.70;99.90;;;;;;5050461;28;20196;-50
2022/08/21 05:14:02;;;;;;;14.20;2.67;;;16.70;99.90;;;;;;5050499;28;20173;-50
2022/08/21 05:16:28;;;;;;;12.80;2.50;;;16.60;99.90;;;;;;5050410;28;20635;-50
2022/08/21 05:18:54;;;;;;;19.13;2.70;;;16.70;99.90;;;;;;5050442;28;20262;-50
2022/08/21 05:21:20;;;;;;;15.82;2.55;;;16.70;99.90;;;;;;5050530;28;20176;-50
2022/08/21 05:23:46;;;;;;;19.05;3.08;;;16.70;99.90;;;;;;5050268;28;20184;-50
2022/08/21 05:26:12;;;;;;;11.05;2.58;;;16.70;99.90;;;;;;5050269;28;20625;-51
2022/08/21 05:28:38;;;;;;;15.48;2.80;;;16.80;99.90;;;;;;5050245;28;20651;-50
2022/08/21 05:31:03;;;;;;;18.52;3.13;;;16.80;99.90;;;;;;5052571;28;20603;-51
2022/08/21 05:33:29;;;;;;;19.85;2.40;;;16.90;99.90;;;;;;5054180;28;20180;-50
2022/08/21 05:35:56;;;;;;;12.35;2.60;;;16.90;99.90;;;;;;5053943;28;20180;-50
2022/08/21 05:38:23;;;;;;;13.68;2.22;;;17.00;99.90;;;;;;5053846;28;20170;-51
2022/08/21 05:40:49;;;;;;;13.38;2.40;;;17.00;99.90;;;;;;5053778;28;20188;-51
2022/08/21 05:43:15;;;;;;;15.80;2.92;;;16.90;99.90;;;;;;5053532;28;20299;-51
2022/08/21 05:45:41;;;;;;;12.98;2.30;;;16.90;99.90;;;;;;5053686;28;20255;-51
2022/08/21 05:48:25;;;;;;;18.08;2.58;;;16.90;99.90;;;;;;5053754;28;20173;-51
2022/08/21 05:50:51;;;;;;;17.02;2.53;;;16.90;99.90;;;;;;5053706;28;20184;-50
2022/08/21 05:53:19;;;;;;;14.23;2.33;;;16.90;99.90;;;;;;5053601;28;20165;-51
2022/08/21 05:55:45;;;;;;;19.58;2.63;;;16.80;99.90;;;;;;5053480;28;20200;-50
2022/08/21 05:58:15;;;;;;;20.42;2.42;;;16.80;99.90;;;;;;5053410;28;20406;-50
2022/08/21 06:00:42;;;;;;;14.77;2.75;;;16.90;99.90;;;;;;5053679;28;20200;-50
2022/08/21 06:03:13;;;;;;;15.85;2.58;;;16.80;99.90;;;;;;5053410;28;20173;-50
2022/08/21 06:05:38;;;;;;;21.70;2.72;;;16.80;99.90;;;;;;5053309;28;20201;-50
2022/08/21 06:08:04;;;;;;;15.60;2.55;;;16.80;99.90;;;;;;5053292;28;20183;-50
2022/08/21 06:10:30;;;;;;;14.73;2.95;;;16.80;99.90;;;;;;5053154;28;20165;-51
2022/08/21 06:12:56;;;;;;;16.23;2.50;;;16.80;99.90;;;;;;5053207;28;20173;-51
2022/08/21 06:15:22;;;;;;;16.88;2.17;;;16.80;99.90;;;;;;5053303;28;20177;-51
2022/08/21 06:17:47;;;;;;;17.85;2.53;;;16.80;99.90;;;;;;5053134;28;20173;-50
2022/08/21 06:20:13;;;;;;;15.30;2.47;;;16.80;99.90;;;;;;5053011;28;20196;-50
2022/08/21 06:22:39;;;;;;;17.05;2.10;;;16.80;99.90;;;;;;5052848;28;20244;-50
2022/08/21 06:25:05;;;;;;;19.27;2.67;;;16.90;99.90;;;;;;5052889;28;20556;-50
2022/08/21 06:27:30;;;;;;;19.42;3.05;;;16.90;99.90;;;;;;5053179;28;20261;-50
2022/08/21 06:29:57;;;;;;;11.18;2.67;;;17.00;99.90;;;;;;5051489;28;20695;-50
2022/08/21 06:32:23;;;;;;;13.00;2.25;;;17.00;99.90;;;;;;5052854;28;20652;-50
2022/08/21 06:34:48;;;;;;;22.23;2.38;;;17.00;99.90;;;;;;5052727;28;20204;-50
2022/08/21 06:37:14;;;;;;;15.60;2.50;;;17.10;99.90;;;;;;5052746;28;20199;-50
2022/08/21 06:39:40;;;;;;;16.63;2.53;;;17.10;99.90;;;;;;5052624;28;20647;-51
2022/08/21 06:42:05;;;;;;;12.88;2.35;;;17.20;99.90;;;;;;5051557;28;20256;-51
2022/08/21 06:44:31;;;;;;;12.20;2.85;;;17.20;99.90;;;;;;5052386;28;20221;-50
2022/08/21 06:46:57;;;;;;;17.83;2.30;;;17.30;99.90;;;;;;5052514;28;20718;-51
2022/08/21 06:49:23;;;;;;;15.18;2.30;;;17.40;99.90;;;;;;5052489;28;20169;-51
2022/08/21 06:51:48;;;;;;;12.52;1.90;;;17.50;99.90;;;;;;5052392;28;20215;-50
2022/08/21 06:54:14;;;;;;;14.45;2.70;;;17.50;99.90;;;;;;5052520;28;20165;-50
2022/08/21 06:56:40;;;;;;;11.55;2.53;;;17.60;99.90;;;;;;5052185;28;20298;-51
2022/08/21 06:59:06;;;;;;;18.02;2.80;;;17.70;99.90;;;;;;5052209;28;20536;-51
2022/08/21 07:01:32;;;;;;;20.52;2.63;;;17.70;99.90;;;;;;5052247;28;20169;-51
2022/08/21 07:03:57;;;;;;;17.63;2.72;;;17.80;99.90;;;;;;5052203;28;20215;-50
2022/08/21 07:06:23;;;;;;;22.92;2.10;;;18.00;99.90;;;;;;5052105;28;20248;-50
2022/08/21 07:08:49;;;;;;;12.98;2.53;;;18.10;99.90;;;;;;5052114;28;20219;-50
2022/08/21 07:11:19;;;;;;;13.70;2.00;;;18.10;99.90;;;;;;5052330;28;20699;-50
2022/08/21 07:13:45;;;;;;;12.95;2.78;;;18.20;99.90;;;;;;5052091;28;20476;-51
2022/08/21 07:16:11;;;;;;;18.17;2.65;;;18.30;99.90;;;;;;5051931;28;20169;-49
2022/08/21 07:18:36;;;;;;;19.40;2.63;;;18.40;99.90;;;;;;5051859;28;20199;-51
2022/08/21 07:21:05;;;;;;;18.30;2.47;;;18.40;99.90;;;;;;5051805;28;20170;-51
2022/08/21 07:23:35;;;;;;;14.40;2.42;;;18.40;99.90;;;;;;5051764;28;20193;-51
2022/08/21 07:26:01;;;;;;;12.18;2.33;;;18.20;99.90;;;;;;5051728;28;20268;-51
2022/08/21 07:28:28;;;;;;;17.80;2.35;;;18.30;99.90;;;;;;5051741;28;20176;-50
2022/08/21 07:30:56;;;;;;;15.50;2.17;;;18.30;99.90;;;;;;5051643;28;20624;-49
2022/08/21 07:33:22;;;;;;;19.35;2.50;;;18.30;99.90;;;;;;5051701;28;20166;-49
2022/08/21 07:35:48;;;;;;;13.80;2.42;;;18.40;99.90;;;;;;5051825;28;20169;-49
2022/08/21 07:38:14;;;;;;;10.23;2.03;;;18.40;99.90;;;;;;5051770;28;20174;-49
2022/08/21 07:40:39;;;;;;;14.93;2.35;;;18.40;99.90;;;;;;5051597;28;20182;-49
2022/08/21 07:43:05;;;;;;;18.15;2.50;;;18.40;99.90;;;;;;5051709;28;20643;-49
2022/08/21 07:45:31;;;;;;;15.15;2.30;;;18.30;99.90;;;;;;5051422;28;20687;-49
2022/08/21 07:47:57;;;;;;;16.10;2.22;;;18.40;99.90;;;;;;5051377;28;20157;-49
2022/08/21 07:50:24;;;;;;;18.13;2.65;;;18.40;99.90;;;;;;5051270;28;20185;-50
2022/08/21 07:52:49;;;;;;;14.35;2.17;;;18.50;99.90;;;;;;5050869;28;20191;-49
2022/08/21 07:55:18;;;;;;;12.40;2.20;;;18.50;99.90;;;;;;5051175;28;20243;-49
2022/08/21 07:57:44;;;;;;;18.63;2.58;;;18.50;99.90;;;;;;5051207;28;20185;-51
2022/08/21 08:00:17;;;;;;;11.25;2.33;;;18.30;99.90;;;;;;5051124;28;20499;-49
2022/08/21 08:02:49;;;;;;;13.88;2.30;;;18.30;99.90;;;;;;5050924;28;20192;-51
2022/08/21 08:05:15;;;;;;;13.93;2.10;;;18.20;99.90;;;;;;5050979;28;20209;-51
2022/08/21 08:07:41;;;;;;;16.98;2.67;;;18.20;99.90;;;;;;5051060;28;20169;-49
2022/08/21 08:10:08;;;;;;;12.30;2.20;;;18.10;99.90;;;;;;5051161;28;20173;-50
2022/08/21 08:12:36;;;;;;;10.82;2.55;;;18.00;99.90;;;;;;5050916;28;20180;-49
2022/08/21 08:15:04;;;;;;;9.77;1.90;;;18.10;99.90;;;;;;5051025;28;20242;-49
2022/08/21 08:17:32;;;;;;;14.90;2.20;;;18.30;99.90;;;;;;5050820;28;20170;-50
2022/08/21 08:19:59;;;;;;;19.58;2.25;;;18.40;99.90;;;;;;5051229;28;20187;-49
2022/08/21 08:22:24;;;;;;;16.10;2.40;;;18.60;99.90;;;;;;5050952;28;20655;-49
2022/08/21 08:24:51;;;;;;;11.93;2.38;;;18.80;99.90;;;;;;5050940;28;20213;-50
2022/08/21 08:27:17;;;;;;;20.83;3.00;;;18.80;99.90;;;;;;5050900;28;20193;-50
2022/08/21 08:29:44;;;;;;;15.50;2.88;;;18.50;99.90;;;;;;5051249;28;20525;-50
2022/08/21 08:32:09;;;;;;;12.00;2.30;;;18.40;99.90;;;;;;5050886;28;20643;-50
2022/08/21 08:34:36;;;;;;;12.07;2.17;;;18.40;99.90;;;;;;5050755;28;20204;-50
2022/08/21 08:37:03;;;;;;;12.38;2.25;;;18.50;99.90;;;;;;5050721;28;20219;-50
2022/08/21 08:39:29;;;;;;;10.93;2.13;;;18.50;99.90;;;;;;5050921;28;20483;-50
2022/08/21 08:42:07;;;;;;;12.18;2.17;;;18.80;99.90;;;;;;5050661;28;20213;-50
2022/08/21 08:44:34;;;;;;;15.68;2.10;;;19.00;99.90;;;;;;5050286;28;20225;-50
2022/08/21 08:47:00;;;;;;;10.07;1.85;;;19.20;99.90;;;;;;5050543;28;20208;-50
2022/08/21 08:49:29;;;;;;;13.18;2.10;;;19.20;99.90;;;;;;5050756;28;20196;-51
2022/08/21 08:52:08;;;;;;;12.88;2.28;;;19.30;99.90;;;;;;5050588;28;20172;-50
2022/08/21 08:54:43;;;;;;;17.40;2.65;;;19.60;99.90;;;;;;5050509;28;20632;-50
2022/08/21 08:57:18;;;;;;;18.95;2.58;;;19.80;99.90;;;;;;5050439;28;20291;-50
2022/08/21 08:59:51;;;;;;;15.45;2.28;;;20.10;99.90;;;;;;5050460;28;20177;-50
2022/08/21 09:02:18;;;;;;;17.92;2.03;;;20.30;99.90;;;;;;5050586;28;20220;-50
2022/08/21 09:04:46;;;;;;;12.07;2.42;;;20.50;99.90;;;;;;5050844;28;20218;-50
2022/08/21 09:07:24;;;;;;;15.90;3.22;;;20.60;99.90;;;;;;5054346;28;20192;-50
2022/08/21 09:10:18;;;;;;;13.55;2.45;;;20.50;99.90;;;;;;5054350;28;20176;-50
2022/08/21 09:13:04;;;;;;;13.65;2.10;;;20.60;99.90;;;;;;5054297;28;20526;-51
2022/08/21 09:15:54;;;;;;;16.33;2.10;;;20.80;99.90;;;;;;5054241;28;20177;-51
2022/08/21 09:18:23;;;;;;;12.50;1.95;;;21.10;99.90;;;;;;5054202;28;20173;-51
2022/08/21 09:21:24;;;;;;;15.18;2.33;;;21.40;99.90;;;;;;5054332;28;20177;-50
2022/08/21 09:23:53;;;;;;;9.80;2.20;;;21.70;99.90;;;;;;5053996;28;20173;-51
2022/08/21 09:26:23;;;;;;;13.80;2.10;;;22.10;99.90;;;;;;5054110;28;20215;-51
2022/08/21 09:28:55;;;;;;;8.63;2.00;;;22.30;99.90;;;;;;5053927;28;20201;-50
2022/08/21 09:31:27;;;;;;;8.18;1.85;;;22.60;99.90;;;;;;5054146;28;20181;-50
2022/08/21 09:34:03;;;;;;;10.07;2.30;;;22.80;99.90;;;;;;5053924;28;20165;-50
2022/08/21 09:36:50;;;;;;;11.95;2.53;;;22.90;99.90;;;;;;5053906;28;20169;-50
2022/08/21 09:39:39;;;;;;;9.48;2.58;;;23.10;99.90;;;;;;5053770;28;20173;-50
2022/08/21 09:42:08;;;;;;;11.90;2.30;;;23.10;99.90;;;;;;5044670;28;20189;-50
2022/08/21 09:44:39;;;;;;;12.07;2.38;;;22.80;99.90;;;;;;5053305;28;20248;-50
2022/08/21 09:47:09;;;;;;;7.00;1.80;;;22.50;99.90;;;;;;5053703;28;20175;-50
2022/08/21 09:49:39;;;;;;;14.48;2.63;;;22.20;99.90;;;;;;5053663;28;20181;-50
2022/08/21 09:52:17;;;;;;;9.40;2.08;;;22.10;99.90;;;;;;5053623;28;20640;-50
2022/08/21 09:54:46;;;;;;;10.55;2.17;;;22.20;99.90;;;;;;5053566;28;20214;-51
2022/08/21 09:57:46;;;;;;;6.90;1.90;;;22.30;99.90;;;;;;5053383;28;20172;-51
2022/08/21 10:00:33;;;;;;;6.32;1.50;;;22.20;99.90;;;;;;5053243;28;20180;-50
2022/08/21 10:03:12;;;;;;;8.43;2.25;;;22.40;99.90;;;;;;5053368;28;20223;-50
2022/08/21 10:05:39;;;;;;;14.63;2.22;;;22.90;99.90;;;;;;5053246;28;20217;-51
2022/08/21 10:08:15;;;;;;;10.02;1.75;;;23.10;99.90;;;;;;5053406;28;20207;-50
2022/08/21 10:10:41;;;;;;;8.57;1.92;;;23.40;99.90;;;;;;5053365;28;20200;-50
2022/08/21 10:13:23;;;;;;;10.52;2.25;;;23.20;99.90;;;;;;5053081;28;20220;-51
2022/08/21 10:16:07;;;;;;;8.10;1.60;;;22.80;99.90;;;;;;5052781;28;20264;-50
2022/08/21 10:18:43;;;;;;;8.90;1.90;;;22.90;99.90;;;;;;5053043;28;20170;-50
2022/08/21 10:21:27;;;;;;;7.93;2.00;;;23.00;99.90;;;;;;5052999;28;20187;-51
2022/08/21 10:24:23;;;;;;;12.18;2.20;;;23.20;99.90;;;;;;5052670;28;20177;-50
2022/08/21 10:27:19;;;;;;;9.85;2.10;;;23.40;99.90;;;;;;5052927;28;20169;-51
2022/08/21 10:30:06;;;;;;;5.80;1.50;;;23.60;99.90;;;;;;5051360;28;20625;-51
2022/08/21 10:32:47;;;;;;;5.60;1.48;;;23.70;99.90;;;;;;5052664;28;20169;-51
2022/08/21 10:35:21;;;;;;;6.32;1.92;;;23.70;99.90;;;;;;5052673;28;20227;-51
2022/08/21 10:38:32;;;;;;;8.05;1.80;;;23.90;99.90;;;;;;5052612;28;20180;-51
2022/08/21 10:41:03;;;;;;;10.40;1.98;;;24.40;99.90;;;;;;5049321;28;20216;-51
2022/08/21 10:43:37;;;;;;;4.05;1.70;;;24.70;99.90;;;;;;5052776;28;20223;-50
2022/08/21 10:46:15;;;;;;;6.72;1.83;;;24.40;99.90;;;;;;5052454;28;20235;-51
2022/08/21 10:48:47;;;;;;;7.38;2.00;;;24.70;99.90;;;;;;5052455;28;20164;-51
2022/08/21 10:51:21;;;;;;;6.05;1.52;;;24.70;99.90;;;;;;5052577;28;20652;-51
2022/08/21 10:54:09;;;;;;;5.65;1.70;;;25.00;99.90;;;;;;5052382;28;20231;-51
2022/08/21 10:56:38;;;;;;;9.07;1.92;;;25.20;99.90;;;;;;5052360;28;20169;-52
2022/08/21 10:59:28;;;;;;;8.70;1.83;;;25.60;99.90;;;;;;5052235;28;20161;-51
2022/08/21 11:02:08;;;;;;;5.72;1.70;;;26.60;99.90;;;;;;5052357;28;20231;-51
2022/08/21 11:04:40;;;;;;;8.68;2.00;;;27.60;99.90;;;;;;5052382;28;20213;-52
2022/08/21 11:07:16;;;;;;;4.60;1.63;;;29.30;99.90;;;;;;5052214;28;20185;-51
2022/08/21 11:09:45;;;;;;;8.32;2.10;;;29.30;99.90;;;;;;5051415;28;20252;-51
2022/08/21 11:12:35;;;;;;;5.25;2.00;;;29.00;99.90;;;;;;5051707;28;20245;-51
2022/08/21 11:15:23;;;;;;;8.57;2.17;;;30.60;99.90;;;;;;5052038;28;20181;-52
2022/08/21 11:18:01;;;;;;;5.13;2.00;;;32.10;99.90;;;;;;5051868;28;20249;-52
2022/08/21 11:21:23;;;;;;;8.35;1.95;;;34.20;99.90;;;;;;5051771;28;20173;-53
2022/08/21 11:24:17;;;;;;;7.72;1.90;;;34.70;99.90;;;;;;4990199;28;20183;-58
2022/08/21 11:27:01;;;;;;;6.68;1.73;;;34.40;99.90;;;;;;4990378;28;20190;-52
2022/08/21 11:29:32;;;;;;;6.22;2.15;;;32.20;99.90;;;;;;5045304;28;20185;-52
2022/08/21 11:32:03;;;;;;;7.57;2.13;;;29.50;99.90;;;;;;5051583;28;20724;-52
2022/08/21 11:34:35;;;;;;;5.55;1.92;;;28.60;99.90;;;;;;5051627;28;20237;-52
2022/08/21 11:37:19;;;;;;;6.32;2.10;;;28.40;99.90;;;;;;5051643;28;20219;-52
2022/08/21 11:40:03;;;;;;;6.20;1.58;;;29.00;99.90;;;;;;5051526;28;20187;-52
2022/08/21 11:43:04;;;;;;;5.60;2.00;;;29.30;99.90;;;;;;5051518;28;20178;-52
2022/08/21 11:45:55;;;;;;;5.93;1.95;;;29.70;99.90;;;;;;5027878;28;20225;-51
2022/08/21 11:48:32;;;;;;;6.60;1.83;;;30.60;99.90;;;;;;5051327;28;20276;-52
2022/08/21 11:51:05;;;;;;;5.22;1.73;;;32.20;99.90;;;;;;5051352;28;20176;-52
2022/08/21 11:53:31;;;;;;;9.82;2.33;;;33.20;99.90;;;;;;5051371;28;20539;-52
2022/08/21 11:56:18;;;;;;;6.47;2.28;;;32.70;99.90;;;;;;5051037;28;20204;-51
2022/08/21 11:58:53;;;;;;;5.88;1.80;;;31.20;99.90;;;;;;5051380;28;20631;-52
2022/08/21 12:01:24;;;;;;;7.10;2.33;;;29.70;99.90;;;;;;5051195;28;20180;-51
2022/08/21 12:04:03;;;;;;;7.32;2.10;;;29.10;99.90;;;;;;5050902;28;20184;-51
2022/08/21 12:06:32;;;;;;;10.27;2.28;;;28.30;99.90;;;;;;5050992;28;20176;-51
2022/08/21 12:09:03;;;;;;;6.10;2.08;;;27.90;99.90;;;;;;5051138;28;20256;-52
2022/08/21 12:11:29;;;;;;;7.13;2.10;;;30.00;99.90;;;;;;5051285;28;20176;-52
2022/08/21 12:13:58;;;;;;;10.98;1.98;;;31.60;99.90;;;;;;5050976;28;20207;-52
2022/08/21 12:16:34;;;;;;;8.90;2.05;;;34.10;99.90;;;;;;5050895;28;20173;-52
2022/08/21 12:19:13;;;;;;;9.98;2.13;;;34.20;99.90;;;;;;5050773;28;20187;-52
2022/08/21 12:21:56;;;;;;;8.02;2.00;;;34.70;99.90;;;;;;5051112;28;20169;-51
2022/08/21 12:24:37;;;;;;;10.48;2.10;;;33.20;99.90;;;;;;5050696;28;20239;-52
2022/08/21 12:27:21;;;;;;;5.30;2.03;;;32.10;99.90;;;;;;5050723;28;20260;-52
2022/08/21 12:29:50;;;;;;;7.25;1.90;;;31.90;99.90;;;;;;5050898;28;20181;-52
2022/08/21 12:32:16;;;;;;;8.90;2.25;;;31.00;99.90;;;;;;5050809;28;20707;-52
2022/08/21 12:34:48;;;;;;;8.55;2.10;;;29.60;99.90;;;;;;5050723;28;20173;-51
2022/08/21 12:37:25;;;;;;;7.35;2.10;;;28.60;99.90;;;;;;5050748;28;20204;-52
2022/08/21 12:39:53;;;;;;;7.75;2.15;;;28.80;99.90;;;;;;5052717;28;20161;-51
2022/08/21 12:42:38;;;;;;;9.07;2.20;;;28.30;99.90;;;;;;5054797;28;20172;-51
2022/08/21 12:45:17;;;;;;;10.27;2.60;;;27.60;99.90;;;;;;5054571;28;20294;-51
2022/08/21 12:47:52;;;;;;;7.88;2.17;;;27.70;99.90;;;;;;5054893;28;20529;-51
2022/08/21 12:50:35;;;;;;;6.78;2.00;;;27.50;99.90;;;;;;5054572;28;20259;-51
2022/08/21 12:53:17;;;;;;;9.88;1.92;;;28.00;99.90;;;;;;5054511;28;20169;-52
2022/08/21 12:55:43;;;;;;;6.28;1.75;;;28.20;99.90;;;;;;5054639;28;20209;-51